Time;durP1;ratioP1;P1;durP2;ratioP2;P2;SDS_P1;SDS_P2;PMS_P1;PMS_P2;Temp;Humidity;BMP_temperature;BMP_pressure;BME280_temperature;BME280_humidity;BME280_pressure;Samples;Min_cycle;Max_cycle;Signal;HPM_P1;HPM_P2
2023/07/12 00:01:01;;;;;;;31.77;6.78;;;25.70;76.40;;;;;;5036178;28;20030;-71
2023/07/12 00:03:28;;;;;;;30.67;7.40;;;25.60;76.20;;;;;;5036909;28;20052;-71
2023/07/12 00:05:53;;;;;;;;;;;25.60;77.50;;;;;;5045022;28;20049;-71
2023/07/12 00:08:28;;;;;;;34.90;6.00;;;25.50;76.90;;;;;;5040260;28;19958;-71
2023/07/12 00:10:55;;;;;;;46.75;7.00;;;25.50;79.10;;;;;;5037778;28;20036;-71
2023/07/12 00:13:23;;;;;;;25.40;5.80;;;25.50;79.30;;;;;;5043523;28;20038;-71
2023/07/12 00:15:49;;;;;;;28.40;6.63;;;25.30;79.50;;;;;;5039747;28;20024;-71
2023/07/12 00:18:18;;;;;;;23.70;6.03;;;25.40;79.00;;;;;;5037145;28;20098;-71
2023/07/12 00:20:45;;;;;;;23.38;6.22;;;25.40;79.40;;;;;;5034410;28;20072;-71
2023/07/12 00:23:14;;;;;;;33.78;6.70;;;25.40;81.40;;;;;;5037663;28;20411;-71
2023/07/12 00:25:40;;;;;;;40.90;6.75;;;25.40;80.60;;;;;;5037669;28;20507;-71
2023/07/12 00:28:19;;;;;;;31.98;5.97;;;25.40;78.00;;;;;;5036432;28;20033;-71
2023/07/12 00:30:44;;;;;;;34.72;6.15;;;25.50;81.20;;;;;;5048824;28;20037;-71
2023/07/12 00:33:10;;;;;;;25.43;5.97;;;25.30;77.60;;;;;;5040936;28;20120;-71
2023/07/12 00:35:38;;;;;;;23.95;5.53;;;25.30;84.60;;;;;;5037888;28;20400;-71
2023/07/12 00:38:12;;;;;;;29.67;5.65;;;25.30;83.80;;;;;;5033834;28;20495;-71
2023/07/12 00:40:37;;;;;;;39.53;6.28;;;25.40;82.30;;;;;;5044243;28;20090;-71
2023/07/12 00:43:15;;;;;;;30.43;7.83;;;25.30;79.00;;;;;;5041033;28;20818;-71
2023/07/12 00:45:44;;;;;;;27.15;5.72;;;25.30;80.90;;;;;;5038913;28;20037;-71
2023/07/12 00:48:12;;;;;;;38.08;6.80;;;25.30;77.00;;;;;;5040309;28;20025;-71
2023/07/12 00:50:38;;;;;;;34.13;7.20;;;25.30;82.10;;;;;;5043514;28;20104;-71
2023/07/12 00:53:04;;;;;;;29.30;6.53;;;25.30;78.00;;;;;;5054942;28;20025;-71
2023/07/12 00:55:59;;;;;;;33.20;8.07;;;25.50;81.50;;;;;;5037856;28;20043;-71
2023/07/12 00:58:29;;;;;;;28.08;7.10;;;25.40;77.90;;;;;;5046215;28;20400;-71
2023/07/12 01:00:58;;;;;;;45.72;8.75;;;25.40;79.00;;;;;;5046897;28;20051;-71
2023/07/12 01:03:28;;;;;;;41.50;7.45;;;25.50;79.20;;;;;;5040776;28;20635;-70
2023/07/12 01:05:54;;;;;;;39.33;8.02;;;25.40;83.00;;;;;;5041536;28;20041;-69
2023/07/12 01:08:21;;;;;;;39.28;7.53;;;25.50;82.50;;;;;;5038292;28;20021;-70
2023/07/12 01:10:47;;;;;;;40.33;7.53;;;25.40;81.60;;;;;;5040326;28;20489;-69
2023/07/12 01:13:12;;;;;;;30.73;8.35;;;25.10;86.70;;;;;;5045570;28;20017;-70
2023/07/12 01:15:38;;;;;;;43.73;7.63;;;25.00;86.50;;;;;;5044346;28;20669;-69
2023/07/12 01:18:05;;;;;;;47.97;10.40;;;24.70;91.00;;;;;;5037865;28;20036;-68
2023/07/12 01:20:37;;;;;;;47.85;10.02;;;24.70;93.60;;;;;;5046923;28;20279;-69
2023/07/12 01:23:02;;;;;;;56.45;9.60;;;24.70;94.10;;;;;;5043738;28;20513;-68
2023/07/12 01:25:38;;;;;;;37.13;8.57;;;24.20;97.70;;;;;;5040355;28;20045;-69
2023/07/12 01:28:04;;;;;;;49.08;8.25;;;24.30;97.80;;;;;;5042140;28;20312;-68
2023/07/12 01:30:30;;;;;;;55.25;11.27;;;24.10;95.70;;;;;;5044072;28;20483;-67
2023/07/12 01:32:56;;;;;;;48.92;11.07;;;23.80;99.90;;;;;;5041361;28;20598;-68
2023/07/12 01:35:22;;;;;;;49.40;11.20;;;23.70;99.90;;;;;;5038856;28;20049;-68
2023/07/12 01:37:47;;;;;;;41.30;9.38;;;23.40;99.90;;;;;;5045998;28;20100;-68
2023/07/12 01:40:13;;;;;;;35.57;8.83;;;23.40;99.90;;;;;;5038869;28;20041;-69
2023/07/12 01:42:39;;;;;;;34.47;8.35;;;23.40;99.90;;;;;;5038630;28;20041;-68
2023/07/12 01:45:05;;;;;;;35.00;8.95;;;23.00;99.90;;;;;;5042992;28;20147;-68
2023/07/12 01:47:33;;;;;;;33.85;9.68;;;22.90;99.90;;;;;;5043106;28;20032;-69
2023/07/12 01:49:58;;;;;;;33.40;8.90;;;22.60;99.90;;;;;;5043057;28;20447;-69
2023/07/12 01:52:24;;;;;;;28.05;7.95;;;22.30;99.90;;;;;;5038352;28;20029;-70
2023/07/12 01:54:50;;;;;;;22.90;6.80;;;22.50;99.90;;;;;;5043058;28;20036;-68
2023/07/12 01:57:16;;;;;;;30.77;7.57;;;22.50;99.90;;;;;;5044552;28;20272;-68
2023/07/12 01:59:41;;;;;;;18.00;6.45;;;22.80;99.90;;;;;;5047106;28;20821;-68
2023/07/12 02:02:07;;;;;;;29.13;6.50;;;23.00;99.90;;;;;;5040690;28;20033;-68
2023/07/12 02:04:33;;;;;;;25.10;6.53;;;23.00;99.90;;;;;;5044776;28;20299;-68
2023/07/12 02:06:59;;;;;;;25.20;6.75;;;23.10;99.90;;;;;;5044017;28;20032;-68
2023/07/12 02:09:39;;;;;;;26.73;6.40;;;22.80;99.90;;;;;;5041281;28;20052;-68
2023/07/12 02:12:05;;;;;;;22.38;5.93;;;22.70;99.90;;;;;;5041080;28;20068;-68
2023/07/12 02:14:31;;;;;;;31.92;7.38;;;22.80;99.90;;;;;;5036810;28;20018;-68
2023/07/12 02:16:56;;;;;;;19.97;6.30;;;22.80;99.90;;;;;;5040466;28;20065;-68
2023/07/12 02:19:22;;;;;;;25.77;6.10;;;22.80;99.90;;;;;;5043344;28;20108;-68
2023/07/12 02:21:47;;;;;;;26.30;6.80;;;22.70;99.90;;;;;;5043765;28;20107;-68
2023/07/12 02:24:13;;;;;;;25.70;7.10;;;22.70;99.90;;;;;;5040265;28;20162;-70
2023/07/12 02:26:41;;;;;;;22.07;6.40;;;22.60;99.90;;;;;;5044585;28;20032;-69
2023/07/12 02:29:07;;;;;;;27.13;7.80;;;22.50;99.90;;;;;;5038273;28;20319;-69
2023/07/12 02:31:33;;;;;;;;;;;22.00;99.90;;;;;;5048780;28;20017;-69
2023/07/12 02:33:59;;;;;;;29.05;8.00;;;21.80;99.90;;;;;;5038038;28;19913;-69
2023/07/12 02:36:25;;;;;;;25.95;8.65;;;21.80;99.90;;;;;;5040118;28;20055;-69
2023/07/12 02:38:51;;;;;;;31.77;9.63;;;22.00;99.90;;;;;;5038159;28;20404;-69
2023/07/12 02:41:18;;;;;;;30.80;8.70;;;22.20;99.90;;;;;;5042899;28;20102;-69
2023/07/12 02:43:47;;;;;;;25.88;9.30;;;22.30;99.90;;;;;;5041731;28;20032;-70
2023/07/12 02:46:12;;;;;;;32.80;8.90;;;22.30;99.90;;;;;;5040931;28;20444;-69
2023/07/12 02:48:38;;;;;;;28.47;8.60;;;22.40;99.90;;;;;;5040801;28;20028;-69
2023/07/12 02:51:03;;;;;;;26.13;8.17;;;22.30;99.90;;;;;;5038407;28;20055;-69
2023/07/12 02:53:29;;;;;;;28.37;9.20;;;22.40;99.90;;;;;;5036765;28;20128;-69
2023/07/12 02:55:55;;;;;;;30.92;9.65;;;22.50;99.90;;;;;;5043166;28;20155;-69
2023/07/12 02:58:21;;;;;;;31.75;9.27;;;22.50;99.90;;;;;;5040483;28;20032;-68
2023/07/12 03:00:47;;;;;;;29.88;8.98;;;22.30;99.90;;;;;;5042972;28;20038;-69
2023/07/12 03:03:15;;;;;;;31.98;9.00;;;22.30;99.90;;;;;;5039101;28;20132;-69
2023/07/12 03:05:41;;;;;;;30.40;7.93;;;21.80;99.90;;;;;;5040109;28;20044;-69
2023/07/12 03:08:07;;;;;;;23.67;8.25;;;21.70;99.90;;;;;;5036100;28;20029;-68
2023/07/12 03:10:36;;;;;;;22.40;7.80;;;21.40;99.90;;;;;;5043987;28;20075;-67
2023/07/12 03:13:01;;;;;;;28.38;9.55;;;21.60;99.90;;;;;;5043779;28;20017;-67
2023/07/12 03:15:27;;;;;;;26.92;9.13;;;21.90;99.90;;;;;;5037839;28;20056;-68
2023/07/12 03:17:53;;;;;;;22.40;9.50;;;22.00;99.90;;;;;;5038782;28;20114;-67
2023/07/12 03:20:18;;;;;;;26.20;9.90;;;22.10;99.90;;;;;;5036707;28;20034;-67
2023/07/12 03:22:44;;;;;;;26.10;9.00;;;22.10;99.90;;;;;;5039006;28;20043;-68
2023/07/12 03:25:09;;;;;;;27.73;9.50;;;22.20;99.90;;;;;;5033609;28;20044;-68
2023/07/12 03:27:35;;;;;;;29.00;9.07;;;22.20;99.90;;;;;;5037702;28;20032;-68
2023/07/12 03:30:00;;;;;;;32.53;8.33;;;22.10;99.90;;;;;;5040782;28;20032;-68
2023/07/12 03:32:26;;;;;;;21.03;8.63;;;22.10;99.90;;;;;;5035191;28;20029;-67
2023/07/12 03:34:52;;;;;;;19.47;7.37;;;22.20;99.90;;;;;;5036871;28;20114;-68
2023/07/12 03:37:18;;;;;;;27.08;8.32;;;22.00;99.90;;;;;;5035447;28;20025;-67
2023/07/12 03:39:43;;;;;;;26.88;8.38;;;22.00;99.90;;;;;;5032108;28;20132;-68
2023/07/12 03:42:09;;;;;;;33.08;8.77;;;21.90;99.90;;;;;;5039228;28;20025;-67
2023/07/12 03:44:35;;;;;;;28.88;7.75;;;22.00;99.90;;;;;;5035790;28;20049;-68
2023/07/12 03:47:01;;;;;;;31.88;8.73;;;22.00;99.90;;;;;;5038356;28;20048;-67
2023/07/12 03:49:28;;;;;;;26.77;7.90;;;21.90;99.90;;;;;;5038000;28;20040;-68
2023/07/12 03:51:53;;;;;;;23.88;8.38;;;21.90;99.90;;;;;;5039618;28;20056;-68
2023/07/12 03:54:21;;;;;;;27.17;8.27;;;22.00;99.90;;;;;;5038678;28;20153;-68
2023/07/12 03:56:47;;;;;;;31.48;8.88;;;21.90;99.90;;;;;;5040015;28;20064;-68
2023/07/12 03:59:12;;;;;;;26.23;7.65;;;22.00;99.90;;;;;;5040377;28;20052;-68
2023/07/12 04:01:38;;;;;;;35.17;9.77;;;22.00;99.90;;;;;;5038030;28;20132;-68
2023/07/12 04:04:04;;;;;;;28.00;7.93;;;21.90;99.90;;;;;;5037562;28;20033;-68
2023/07/12 04:06:30;;;;;;;26.60;7.32;;;21.90;99.90;;;;;;5035664;28;20056;-68
2023/07/12 04:08:55;;;;;;;23.00;8.47;;;22.00;99.90;;;;;;5036771;28;20604;-68
2023/07/12 04:11:30;;;;;;;21.50;7.40;;;22.00;99.90;;;;;;5037526;28;20530;-68
2023/07/12 04:13:56;;;;;;;22.85;7.80;;;22.00;99.90;;;;;;5036506;28;20283;-68
2023/07/12 04:16:25;;;;;;;22.90;8.52;;;22.00;99.90;;;;;;5034212;28;20499;-67
2023/07/12 04:18:52;;;;;;;26.23;8.25;;;21.90;99.90;;;;;;5040508;28;20033;-67
2023/07/12 04:21:17;;;;;;;;;;;21.90;99.90;;;;;;5042743;28;20752;-67
2023/07/12 04:23:43;;;;;;;29.52;10.77;;;21.90;99.90;;;;;;5037190;28;19999;-67
2023/07/12 04:26:09;;;;;;;32.63;10.57;;;21.90;99.90;;;;;;5035728;28;20040;-68
2023/07/12 04:28:42;;;;;;;27.27;10.70;;;21.80;99.90;;;;;;5035970;28;20107;-67
2023/07/12 04:31:10;;;;;;;25.33;10.48;;;22.00;99.90;;;;;;5040775;28;20576;-68
2023/07/12 04:33:36;;;;;;;27.63;9.57;;;22.00;99.90;;;;;;5033952;28;20029;-67
2023/07/12 04:36:07;;;;;;;24.90;10.05;;;22.00;99.90;;;;;;5041614;28;20032;-68
2023/07/12 04:38:33;;;;;;;30.02;10.05;;;22.10;99.90;;;;;;5036611;28;20440;-68
2023/07/12 04:40:59;;;;;;;29.90;10.15;;;22.00;99.90;;;;;;5041198;28;20033;-68
2023/07/12 04:43:25;;;;;;;28.35;9.25;;;22.10;99.90;;;;;;5036424;28;20377;-68
2023/07/12 04:45:52;;;;;;;35.25;10.55;;;22.30;99.90;;;;;;5044606;28;20115;-68
2023/07/12 04:48:18;;;;;;;30.88;10.10;;;22.30;99.90;;;;;;5042305;28;20488;-67
2023/07/12 04:50:44;;;;;;;26.73;8.40;;;22.50;99.90;;;;;;5039335;28;20056;-68
2023/07/12 04:53:12;;;;;;;22.63;9.82;;;22.60;99.90;;;;;;5041453;28;20063;-67
2023/07/12 04:55:37;;;;;;;29.90;9.45;;;22.60;99.90;;;;;;5040401;28;20043;-68
2023/07/12 04:58:03;;;;;;;30.13;9.70;;;22.60;99.90;;;;;;5036546;28;20021;-67
2023/07/12 05:00:28;;;;;;;24.90;9.70;;;22.60;99.90;;;;;;5039467;28;20037;-67
2023/07/12 05:02:54;;;;;;;31.87;11.90;;;22.60;99.90;;;;;;5033142;28;20017;-67
2023/07/12 05:05:20;;;;;;;28.77;8.87;;;22.70;99.90;;;;;;5039463;28;20698;-67
2023/07/12 05:07:48;;;;;;;31.55;9.98;;;22.70;99.90;;;;;;5033152;28;21079;-67
2023/07/12 05:10:14;;;;;;;25.70;8.88;;;22.70;99.90;;;;;;5039809;28;20540;-67
2023/07/12 05:12:40;;;;;;;24.27;9.55;;;22.70;99.90;;;;;;5036842;28;20076;-68
2023/07/12 05:15:07;;;;;;;32.22;10.00;;;22.70;99.90;;;;;;5039717;28;20037;-67
2023/07/12 05:17:34;;;;;;;26.80;9.00;;;22.70;99.90;;;;;;5037943;28;20026;-67
2023/07/12 05:20:01;;;;;;;24.08;8.90;;;22.50;99.90;;;;;;5035532;28;20045;-66
2023/07/12 05:22:26;;;;;;;;;;;22.50;99.90;;;;;;5036959;28;20067;-67
2023/07/12 05:24:52;;;;;;;30.98;8.23;;;22.50;99.90;;;;;;5036736;28;19948;-67
2023/07/12 05:27:18;;;;;;;22.60;8.75;;;22.50;99.90;;;;;;5036245;28;20030;-68
2023/07/12 05:29:43;;;;;;;20.35;8.07;;;22.60;99.90;;;;;;5037615;28;20454;-67
2023/07/12 05:32:09;;;;;;;22.00;8.30;;;22.60;99.90;;;;;;5037028;28;20067;-67
2023/07/12 05:34:36;;;;;;;25.67;8.40;;;22.70;99.90;;;;;;5039749;28;20049;-68
2023/07/12 05:37:03;;;;;;;21.45;8.73;;;22.80;99.90;;;;;;5040474;28;20029;-67
2023/07/12 05:39:29;;;;;;;22.38;8.27;;;22.80;99.90;;;;;;5041005;28;20025;-68
2023/07/12 05:41:54;;;;;;;29.65;9.35;;;22.70;99.90;;;;;;5044493;28;20456;-67
2023/07/12 05:44:20;;;;;;;23.40;8.33;;;22.80;99.90;;;;;;5041838;28;20030;-67
2023/07/12 05:46:46;;;;;;;27.63;8.85;;;22.80;99.90;;;;;;5043339;28;20044;-67
2023/07/12 05:49:11;;;;;;;25.67;8.15;;;22.80;99.90;;;;;;5037473;28;20056;-67
2023/07/12 05:51:37;;;;;;;25.87;8.67;;;22.80;99.90;;;;;;5039009;28;20032;-67
2023/07/12 05:54:03;;;;;;;23.53;8.83;;;22.90;99.90;;;;;;5041771;28;20412;-68
2023/07/12 05:56:28;;;;;;;36.72;9.57;;;22.90;99.90;;;;;;5040169;28;20029;-67
2023/07/12 05:58:54;;;;;;;27.33;8.83;;;22.90;99.90;;;;;;5040112;28;20504;-68
2023/07/12 06:01:20;;;;;;;30.80;8.57;;;22.80;99.90;;;;;;5041697;28;20105;-68
2023/07/12 06:03:46;;;;;;;23.77;8.85;;;22.80;99.90;;;;;;5043536;28;20021;-68
2023/07/12 06:06:12;;;;;;;28.58;9.45;;;23.00;99.90;;;;;;5040265;28;20056;-67
2023/07/12 06:08:37;;;;;;;25.58;9.05;;;23.00;99.90;;;;;;5039409;28;20076;-69
2023/07/12 06:11:04;;;;;;;22.58;8.48;;;23.10;99.90;;;;;;5038706;28;20049;-69
2023/07/12 06:13:29;;;;;;;;;;;23.10;99.90;;;;;;5042628;28;20021;-68
2023/07/12 06:15:55;;;;;;;18.90;8.32;;;23.00;99.90;;;;;;5043003;28;19991;-69
2023/07/12 06:18:21;;;;;;;22.58;8.32;;;23.10;99.90;;;;;;5042772;28;20091;-69
2023/07/12 06:20:54;;;;;;;22.00;8.75;;;23.30;99.90;;;;;;5042419;28;20104;-70
2023/07/12 06:23:19;;;;;;;21.05;8.10;;;23.30;99.90;;;;;;5043461;28;20041;-69
2023/07/12 06:25:45;;;;;;;26.63;8.63;;;23.60;99.90;;;;;;5044245;28;20032;-70
2023/07/12 06:28:11;;;;;;;23.57;9.00;;;23.70;99.90;;;;;;5039723;28;20112;-70
2023/07/12 06:30:36;;;;;;;23.20;8.47;;;23.80;99.90;;;;;;5042799;28;20171;-70
2023/07/12 06:33:02;;;;;;;20.92;7.55;;;23.90;99.90;;;;;;5037981;28;20032;-70
2023/07/12 06:35:30;;;;;;;19.92;8.57;;;24.00;99.90;;;;;;5040130;28;20152;-70
2023/07/12 06:37:55;;;;;;;22.35;8.02;;;24.00;99.90;;;;;;5055096;28;20413;-70
2023/07/12 06:40:21;;;;;;;24.48;8.20;;;24.10;99.90;;;;;;5040153;28;20037;-69
2023/07/12 06:42:47;;;;;;;20.70;8.00;;;24.10;99.90;;;;;;5037831;28;20471;-69
2023/07/12 06:45:13;;;;;;;22.20;8.52;;;24.10;99.90;;;;;;5040448;28;20084;-70
2023/07/12 06:47:38;;;;;;;23.00;7.40;;;24.40;99.90;;;;;;5036518;28;20530;-70
2023/07/12 06:50:05;;;;;;;22.43;7.63;;;24.50;99.90;;;;;;5039243;28;20029;-68
2023/07/12 06:52:30;;;;;;;22.50;7.78;;;24.60;99.90;;;;;;5036989;28;20040;-70
2023/07/12 06:54:56;;;;;;;18.17;7.70;;;24.40;99.90;;;;;;5036073;28;20033;-70
2023/07/12 06:57:21;;;;;;;22.80;7.20;;;24.30;99.90;;;;;;5038097;28;20389;-70
2023/07/12 06:59:47;;;;;;;28.13;8.53;;;24.20;99.90;;;;;;5053853;28;20142;-70
2023/07/12 07:02:12;;;;;;;22.70;7.57;;;24.20;99.90;;;;;;5041082;28;20948;-70
2023/07/12 07:04:38;;;;;;;20.37;8.37;;;24.30;99.90;;;;;;5038723;28;20295;-70
2023/07/12 07:07:04;;;;;;;25.95;7.78;;;24.40;99.90;;;;;;5040389;28;20646;-70
2023/07/12 07:09:30;;;;;;;23.05;7.93;;;24.70;99.90;;;;;;5038381;28;20041;-70
2023/07/12 07:11:56;;;;;;;28.10;8.07;;;25.50;99.90;;;;;;5039473;28;20784;-70
2023/07/12 07:14:23;;;;;;;19.52;7.68;;;26.00;99.90;;;;;;5039397;28;20037;-69
2023/07/12 07:16:48;;;;;;;20.67;7.85;;;26.60;99.90;;;;;;5040880;28;20451;-70
2023/07/12 07:19:14;;;;;;;20.23;6.87;;;26.90;99.90;;;;;;5037866;28;20025;-71
2023/07/12 07:21:41;;;;;;;34.50;8.43;;;27.30;99.90;;;;;;5039356;28;20029;-70
2023/07/12 07:24:07;;;;;;;24.25;8.05;;;27.20;99.90;;;;;;5041409;28;20345;-70
2023/07/12 07:26:32;;;;;;;22.90;7.25;;;27.00;99.90;;;;;;5042112;28;20436;-71
2023/07/12 07:28:58;;;;;;;25.38;7.47;;;27.20;99.90;;;;;;5039525;28;20119;-70
2023/07/12 07:31:24;;;;;;;22.77;6.90;;;27.50;99.90;;;;;;5037836;28;20033;-69
2023/07/12 07:33:49;;;;;;;24.40;7.60;;;27.60;99.90;;;;;;5042122;28;20032;-69
2023/07/12 07:36:15;;;;;;;28.67;7.60;;;27.00;99.90;;;;;;5036907;28;20057;-71
2023/07/12 07:38:40;;;;;;;27.00;9.05;;;26.70;99.90;;;;;;5037075;28;21091;-71
2023/07/12 07:41:09;;;;;;;19.58;7.13;;;26.70;99.90;;;;;;5054127;28;20232;-72
2023/07/12 07:43:36;;;;;;;16.85;7.15;;;26.70;99.90;;;;;;5038518;28;20541;-71
2023/07/12 07:46:06;;;;;;;16.30;6.93;;;26.50;99.90;;;;;;5036516;28;20041;-73
2023/07/12 07:48:31;;;;;;;26.83;7.68;;;26.60;99.90;;;;;;5037125;28;20020;-73
2023/07/12 07:50:57;;;;;;;23.10;6.93;;;26.80;99.90;;;;;;5036524;28;20045;-74
2023/07/12 07:53:23;;;;;;;22.27;9.00;;;26.70;99.90;;;;;;5036933;28;20029;-73
2023/07/12 07:55:49;;;;;;;26.23;7.82;;;26.60;99.90;;;;;;5038027;28;20552;-74
2023/07/12 07:58:15;;;;;;;26.63;7.75;;;26.90;99.90;;;;;;5033390;28;20033;-73
2023/07/12 08:00:41;;;;;;;25.63;7.97;;;27.00;99.90;;;;;;5033883;28;20404;-74
2023/07/12 08:03:08;;;;;;;22.00;8.07;;;27.50;99.90;;;;;;5035957;28;20103;-74
2023/07/12 08:05:34;;;;;;;28.13;8.70;;;27.60;99.90;;;;;;5038732;28;20101;-75
2023/07/12 08:07:59;;;;;;;33.92;8.27;;;28.10;99.90;;;;;;5035783;28;20597;-73
2023/07/12 08:10:26;;;;;;;25.00;7.55;;;28.20;99.30;;;;;;5042537;28;20055;-71
2023/07/12 08:12:54;;;;;;;23.85;7.05;;;28.20;98.80;;;;;;5038512;28;20566;-73
2023/07/12 08:15:21;;;;;;;18.80;8.23;;;28.60;97.10;;;;;;5038938;28;20048;-71
2023/07/12 08:17:47;;;;;;;21.88;6.93;;;28.70;97.90;;;;;;5035798;28;20020;-71
2023/07/12 08:20:13;;;;;;;23.80;7.35;;;29.00;95.30;;;;;;5042302;28;20033;-71
2023/07/12 08:22:38;;;;;;;19.33;6.28;;;28.30;96.50;;;;;;5036182;28;20043;-71
2023/07/12 08:25:04;;;;;;;20.10;6.43;;;28.70;95.60;;;;;;5037801;28;20841;-71
2023/07/12 08:27:30;;;;;;;16.08;6.07;;;27.50;95.50;;;;;;5038125;28;20021;-71
2023/07/12 08:29:58;;;;;;;19.42;6.47;;;27.00;96.00;;;;;;5035653;28;20545;-72
2023/07/12 08:32:27;;;;;;;24.75;6.43;;;26.70;98.00;;;;;;5038857;28;20055;-71
2023/07/12 08:34:57;;;;;;;24.90;7.15;;;26.40;99.90;;;;;;5038290;28;20040;-71
2023/07/12 08:37:24;;;;;;;18.80;7.32;;;26.20;99.90;;;;;;5039866;28;20024;-72
2023/07/12 08:39:50;;;;;;;19.95;6.78;;;25.90;99.90;;;;;;5038944;28;20025;-71
2023/07/12 08:42:21;;;;;;;22.15;6.25;;;25.90;99.90;;;;;;5040170;28;20087;-72
2023/07/12 08:44:47;;;;;;;19.63;6.50;;;25.70;99.90;;;;;;5038726;28;20029;-71
2023/07/12 08:47:30;;;;;;;24.02;6.47;;;26.00;99.90;;;;;;5039736;28;20043;-71
2023/07/12 08:49:56;;;;;;;17.35;6.95;;;25.70;99.90;;;;;;5036755;28;20029;-73
2023/07/12 08:52:32;;;;;;;19.95;6.63;;;25.50;99.90;;;;;;5035369;28;20040;-73
2023/07/12 08:55:01;;;;;;;28.20;7.60;;;25.40;99.90;;;;;;5037346;28;20033;-71
2023/07/12 08:57:29;;;;;;;18.88;7.85;;;25.40;99.90;;;;;;5038047;28;20035;-73
2023/07/12 09:00:05;;;;;;;20.40;6.78;;;25.50;99.90;;;;;;5037594;28;20048;-72
2023/07/12 09:02:31;;;;;;;21.10;6.70;;;25.50;99.90;;;;;;5045234;28;20052;-72
2023/07/12 09:04:59;;;;;;;11.43;5.82;;;25.30;99.90;;;;;;5036771;28;20508;-72
2023/07/12 09:07:31;;;;;;;17.83;6.18;;;25.40;99.90;;;;;;5037332;28;20116;-73
2023/07/12 09:09:59;;;;;;;13.57;4.65;;;25.40;99.90;;;;;;5040952;28;20035;-72
2023/07/12 09:12:31;;;;;;;14.00;5.22;;;25.60;99.90;;;;;;5040430;28;20559;-72
2023/07/12 09:15:04;;;;;;;13.13;5.03;;;25.50;99.90;;;;;;5042536;28;20041;-70
2023/07/12 09:17:42;;;;;;;14.40;4.68;;;25.60;99.90;;;;;;5040974;28;20428;-73
2023/07/12 09:20:26;;;;;;;12.77;5.05;;;25.70;98.90;;;;;;5042371;28;20033;-71
2023/07/12 09:22:53;;;;;;;18.40;4.72;;;25.50;98.90;;;;;;5041267;28;20111;-70
2023/07/12 09:25:22;;;;;;;24.67;5.05;;;25.50;99.70;;;;;;5039959;28;20480;-70
2023/07/12 09:27:48;;;;;;;41.25;5.88;;;25.90;99.90;;;;;;5039154;28;20511;-71
2023/07/12 09:30:21;;;;;;;8.40;3.85;;;25.90;99.90;;;;;;5041092;28;20064;-71
2023/07/12 09:49:51;;;;;;;11.35;4.10;;;26.20;98.00;;;;;;5155538;27;20430;-64
2023/07/12 09:52:21;;;;;;;8.68;3.55;;;26.20;96.60;;;;;;5158692;27;20054;-65
2023/07/12 09:54:53;;;;;;;8.85;3.22;;;26.30;97.30;;;;;;5158691;27;20030;-65
2023/07/12 09:57:57;;;;;;;10.77;4.05;;;26.80;96.60;;;;;;5156405;27;20031;-66
2023/07/12 10:00:41;;;;;;;8.23;3.53;;;27.00;95.20;;;;;;5141419;27;20104;-65
2023/07/12 10:03:28;;;;;;;32.78;6.38;;;27.20;94.10;;;;;;5150360;27;20042;-66
2023/07/12 10:06:25;;;;;;;36.35;7.30;;;27.20;93.70;;;;;;5155307;27;20026;-66
2023/07/12 10:09:12;;;;;;;16.17;3.95;;;27.10;94.40;;;;;;5155612;27;20532;-66
2023/07/12 10:11:52;;;;;;;29.20;6.82;;;27.20;92.80;;;;;;5149750;27;20064;-67
2023/07/12 10:14:20;;;;;;;20.30;4.75;;;27.10;94.40;;;;;;5153338;27;20058;-66
2023/07/12 10:16:50;;;;;;;14.95;3.72;;;27.50;94.90;;;;;;5154117;27;20027;-66
2023/07/12 10:19:29;;;;;;;27.80;5.53;;;27.60;92.80;;;;;;5158612;27;20023;-66
2023/07/12 10:21:59;;;;;;;16.88;5.50;;;27.50;93.40;;;;;;5157776;27;20022;-66
2023/07/12 10:24:34;;;;;;;33.45;6.97;;;27.70;93.20;;;;;;5156770;27;20018;-65
2023/07/12 10:27:13;;;;;;;19.20;5.93;;;28.00;92.80;;;;;;5159038;27;20026;-66
2023/07/12 10:30:04;;;;;;;7.70;3.25;;;27.90;92.80;;;;;;5154970;27;20027;-66
2023/07/12 10:33:00;;;;;;;26.90;6.88;;;27.70;93.50;;;;;;5152800;27;20019;-66
2023/07/12 10:35:49;;;;;;;18.17;5.50;;;27.80;92.80;;;;;;5155547;27;20027;-66
2023/07/12 10:38:17;;;;;;;24.35;5.97;;;27.90;92.70;;;;;;5150279;27;20516;-66
2023/07/12 10:40:55;;;;;;;17.58;4.80;;;28.10;91.60;;;;;;5159339;27;20014;-66
2023/07/12 10:43:31;;;;;;;17.10;4.88;;;28.30;90.70;;;;;;5153466;27;20026;-66
2023/07/12 10:46:04;;;;;;;12.45;4.78;;;28.50;90.70;;;;;;5153584;27;20019;-65
2023/07/12 10:48:31;;;;;;;6.55;2.92;;;28.60;90.10;;;;;;5150834;27;20039;-66
2023/07/12 10:51:19;;;;;;;15.50;4.30;;;28.30;90.40;;;;;;5140123;27;20027;-65
2023/07/12 10:53:50;;;;;;;13.15;3.80;;;27.80;90.30;;;;;;5148273;27;20026;-66
2023/07/12 10:56:19;;;;;;;8.35;3.42;;;28.30;90.30;;;;;;5141705;27;20505;-66
2023/07/12 10:59:24;;;;;;;8.60;3.72;;;29.20;89.00;;;;;;5143864;27;20513;-66
2023/07/12 11:01:53;;;;;;;8.77;3.63;;;29.40;87.40;;;;;;5143158;27;20131;-65
2023/07/12 11:04:45;;;;;;;9.95;3.53;;;29.50;87.70;;;;;;5141913;27;20038;-66
2023/07/12 11:07:11;;;;;;;10.55;3.25;;;29.40;84.60;;;;;;5140913;27;20035;-66
2023/07/12 11:10:04;;;;;;;7.63;3.38;;;28.80;86.20;;;;;;5142269;27;20083;-66
2023/07/12 11:12:30;;;;;;;12.77;3.40;;;28.40;87.10;;;;;;5134072;27;20493;-65
2023/07/12 11:15:22;;;;;;;9.70;4.13;;;28.80;85.90;;;;;;5137905;27;20110;-65
2023/07/12 11:18:03;;;;;;;13.35;4.07;;;29.60;87.00;;;;;;5137348;27;20050;-66
2023/07/12 11:20:35;;;;;;;17.20;3.20;;;30.00;84.20;;;;;;5139885;27;20011;-66
2023/07/12 11:23:28;;;;;;;7.57;3.90;;;29.50;83.70;;;;;;5141880;27;20031;-66
2023/07/12 11:26:03;;;;;;;9.77;3.83;;;29.60;84.10;;;;;;5142240;27;20046;-67
2023/07/12 11:28:40;;;;;;;6.10;3.72;;;29.60;84.10;;;;;;5142678;27;20031;-66
2023/07/12 11:31:25;;;;;;;8.45;3.55;;;30.30;83.60;;;;;;5143495;27;20599;-66
2023/07/12 11:34:16;;;;;;;8.50;3.72;;;29.80;81.30;;;;;;5138655;27;20084;-66
2023/07/12 11:36:48;;;;;;;13.52;4.68;;;29.80;84.00;;;;;;5140145;27;20027;-66
2023/07/12 11:39:17;;;;;;;11.05;3.60;;;30.30;82.50;;;;;;5143959;27;20041;-66
2023/07/12 11:41:52;;;;;;;6.28;3.40;;;30.10;82.30;;;;;;5139184;27;20019;-66
2023/07/12 11:44:18;;;;;;;7.18;3.72;;;29.90;83.00;;;;;;5137375;27;20494;-66
2023/07/12 11:46:44;;;;;;;9.52;4.03;;;29.80;81.40;;;;;;5140116;27;20026;-66
2023/07/12 11:49:15;;;;;;;9.00;3.80;;;29.40;84.50;;;;;;5141022;27;20494;-66
2023/07/12 11:51:44;;;;;;;6.90;3.53;;;29.50;83.60;;;;;;5137705;27;20023;-65
2023/07/12 11:54:20;;;;;;;7.32;3.88;;;29.30;82.70;;;;;;5137081;27;20026;-67
2023/07/12 11:56:47;;;;;;;6.32;3.50;;;29.20;83.60;;;;;;5143243;27;20068;-66
2023/07/12 11:59:23;;;;;;;8.05;3.70;;;29.60;83.70;;;;;;5143389;27;20463;-66
2023/07/12 12:01:51;;;;;;;9.88;3.55;;;29.90;83.30;;;;;;5138622;27;20042;-66
2023/07/12 12:04:23;;;;;;;11.45;3.63;;;29.80;82.60;;;;;;5144253;27;20132;-66
2023/07/12 12:06:54;;;;;;;6.38;3.53;;;29.00;85.30;;;;;;5140194;27;20022;-66
2023/07/12 12:09:26;;;;;;;6.80;3.20;;;29.00;86.50;;;;;;5144701;27;20037;-70
2023/07/12 12:11:54;;;;;;;7.63;3.65;;;28.90;85.80;;;;;;5133596;27;20030;-68
2023/07/12 12:14:25;;;;;;;10.70;3.33;;;29.60;86.70;;;;;;5142126;27;20095;-68
2023/07/12 12:16:54;;;;;;;11.82;3.55;;;29.70;84.50;;;;;;5144919;27;20549;-67
2023/07/12 12:19:22;;;;;;;8.55;3.38;;;29.50;83.40;;;;;;5136919;27;20035;-65
2023/07/12 12:21:58;;;;;;;7.57;3.67;;;29.00;83.00;;;;;;5145622;27;20485;-66
2023/07/12 12:24:24;;;;;;;8.93;3.37;;;28.90;84.90;;;;;;5138160;27;20079;-66
2023/07/12 12:26:51;;;;;;;11.52;4.13;;;29.20;85.40;;;;;;5140076;27;20035;-66
2023/07/12 12:29:19;;;;;;;12.57;4.60;;;29.20;85.40;;;;;;5135497;27;20058;-66
2023/07/12 12:32:02;;;;;;;20.77;4.75;;;29.00;84.00;;;;;;5138400;27;20027;-66
2023/07/12 12:34:40;;;;;;;11.10;4.25;;;28.70;84.40;;;;;;5136342;27;20073;-70
2023/07/12 12:37:06;;;;;;;9.02;3.67;;;28.70;85.40;;;;;;5140966;27;20061;-73
2023/07/12 12:39:33;;;;;;;9.57;4.63;;;29.00;84.70;;;;;;5141325;27;20086;-74
2023/07/12 12:42:06;;;;;;;11.02;4.60;;;28.80;83.20;;;;;;5138662;27;20023;-74
2023/07/12 12:44:36;;;;;;;7.10;4.20;;;28.70;85.10;;;;;;5137811;27;20050;-74
2023/07/12 12:47:14;;;;;;;10.68;4.75;;;28.80;86.10;;;;;;5141873;27;20022;-73
2023/07/12 12:49:41;;;;;;;9.18;3.90;;;28.90;84.70;;;;;;5138117;27;20041;-74
2023/07/12 12:52:26;;;;;;;8.90;4.20;;;29.30;87.40;;;;;;5140372;27;20034;-73
2023/07/12 12:54:53;;;;;;;13.77;4.55;;;29.00;86.20;;;;;;5137097;27;20085;-72
2023/07/12 12:57:19;;;;;;;5.57;3.72;;;29.20;84.50;;;;;;5135181;27;20117;-75
2023/07/12 12:59:45;;;;;;;9.70;4.93;;;29.50;85.00;;;;;;5136575;27;20047;-74
2023/07/12 13:02:17;;;;;;;10.18;4.05;;;29.20;84.30;;;;;;5135042;27;20467;-73
2023/07/12 13:04:43;;;;;;;9.85;4.45;;;29.20;82.20;;;;;;5140752;27;20106;-69